Detall de PIREP

Printer-friendly versionPDF version

[2008/10/24 15:46:00]
Flight IATA:CT3301
Pilot Number:011
Company ICAO:CAT
Aircraft Type:B738/F
PAX:160
Departing Airport: DAAG
Destination Airport: LEZG
Alternate Airport:LEMD
Online: VATSIM
Route:SADAF/N0410F260 UN861 ADX UN863 ARBEK/N0410F270 UN725 LOBAR
Flight Level:FL380
No Slew and time accel
No pause
Crash detect
Detect pilot in Cockpit between each 30 and 45 minutes
15:46 Zero fuel Weight: 136301 Lbs, Fuel Weight: 15198 Lbs
15:46 VATSIM:DAAG 241500Z 21007KT 180V240 9999 SCT026 SCT050 BKN100 24/15 Q1019
15:46 VATSIM:LEZG 241530Z 34005KT CAVOK 17/05 Q1023
15:48 Parking Brakes off
15:55 Take-off
15:55 Take off Weight: 150861 Lbs
15:55 Wind: 215 @ 007 Knots Heading: 271
15:55 POS N36 41 28 E003 11 41
15:55 Flaps:5 at 167 Knots
15:55 Gear Up: 170 Knots
15:58 Flaps:4 at 223 Knots
15:58 Flaps:3 at 223 Knots
15:58 Flaps:2 at 227 Knots
15:58 Flaps:1 at
229 Knots
15:58 Flaps:0 at 232 Knots
16:10 Wind:178@008 Knots Heading: 324 Ground Speed: 366 Knots Altitude 29458 ft
16:15 TOC
16:15 Fuel Weight: 11101 Lb
16:25 Wind:040@034 Knots Heading: 013 Ground Speed: 431 Knots Altitude 38198 ft
16:40 Wind:164@008 Knots Heading: 339 Ground Speed: 465 Knots Altitude 38257 ft
16:42 TOD
16:42 Fuel Weight: 8795 Lb
16:55 Wind:329@009 Knots Heading: 284 Ground Speed: 379 Knots Altitude 10793 ft
17:02 Flaps:1 at 225 Knots
17:02 Flaps:2 at 222 Knots
17:05 Flaps:3 at 208 Knots
17:05 Flaps:4 at 197 Knots
17:05 Flaps:5 at 184 Knots
17:06 Flaps:6 at 174 Knots
17:06 Gear Down: 172 Knots
17:07 Flaps:7 at 162 Knots
17:08 Flaps:8 at 158 Knots
17:09 TouchDown:Rate -102 ft/min Speed: 123 Knots
17:09 VATSIM:LEZG 241630Z 31005KT CAVOK 16/05 Q1023
17:09 Land
17:09 Wind:313@005 Knots
17:09 Heading: 300
17:09 Flight Duration:
01:14
17:09 Landing Weight: 143960 Lbs
17:09 POS N41 39 58 W001 01 59
17:15 Parking brakes on
17:15 Block to Block Duration: 01:27
17:15 Final Fuel: 7250 Lbls
17:15 Spent Fuel: 7947 Lbls
17:15 Flight Length: 355 NM
17:15 TOD Land Length: 127 NM

Exportar CSV

Powered by Drupal - Modified by Danger4k